createdAt,value
2022-12-17T00:02:32.554Z,101775.28
2022-12-17T00:05:19.842Z,101770.09
2022-12-17T00:08:06.943Z,101778.78
2022-12-17T00:10:53.993Z,101770.16
2022-12-17T00:13:42.211Z,101776.19
2022-12-17T00:16:29.309Z,101783.28
2022-12-17T00:19:16.212Z,101783.28
2022-12-17T00:22:03.493Z,101790.97
2022-12-17T00:24:50.753Z,101799.59
2022-12-17T00:27:37.793Z,101802.28
2022-12-17T00:30:27.184Z,101806.41
2022-12-17T00:33:14.275Z,101807.31
2022-12-17T00:36:01.064Z,101810.72
2022-12-17T00:38:48.592Z,101811.34
2022-12-17T00:41:35.493Z,101814.41
2022-12-17T00:44:37.514Z,101819.53
2022-12-17T00:47:25.671Z,101816.88
2022-12-17T00:50:12.644Z,101812.28
2022-12-17T00:53:06.942Z,101820.91
2022-12-17T00:55:54.491Z,101824.94
2022-12-17T00:58:43.716Z,101827.25
2022-12-17T01:01:31.342Z,101834.28
2022-12-17T01:04:20.245Z,101842.88
2022-12-17T01:07:07.253Z,101851.47
2022-12-17T01:09:53.991Z,101846.38
2022-12-17T01:12:41.012Z,101849.53
2022-12-17T01:15:28.343Z,101853.72
2022-12-17T01:18:15.421Z,101855.34
2022-12-17T01:21:03.863Z,101848.34
2022-12-17T01:23:51.034Z,101849.53
2022-12-17T01:26:38.043Z,101849.41
2022-12-17T01:29:25.114Z,101851.94
2022-12-17T01:32:11.821Z,101851.84
2022-12-17T01:34:59.132Z,101852.91
2022-12-17T01:37:47.883Z,101859.03
2022-12-17T01:40:35.082Z,101862.59
2022-12-17T01:43:21.874Z,101855.69
2022-12-17T01:46:09.045Z,101859.28
2022-12-17T01:48:57.376Z,101802.66
2022-12-17T01:51:45.576Z,101866.09
2022-12-17T01:54:34.006Z,101865.28
2022-12-17T01:57:21.806Z,101870.56
2022-12-17T02:00:10.256Z,101868.97
2022-12-17T02:03:03.724Z,101866.19
2022-12-17T02:05:52.636Z,101876.28
2022-12-17T02:08:44.355Z,101877.03
2022-12-17T02:11:36.757Z,101880.72
2022-12-17T02:14:28.766Z,101879.81
2022-12-17T02:17:18.914Z,101887.16
2022-12-17T02:20:10.170Z,101887.16
2022-12-17T02:23:00.196Z,101892.34
2022-12-17T02:25:51.815Z,101889.59
2022-12-17T02:28:40.397Z,101889.50
2022-12-17T02:31:28.231Z,101896.22
2022-12-17T02:34:16.926Z,101890.94
2022-12-17T02:37:06.527Z,101898.34
2022-12-17T02:39:53.426Z,101899.25
2022-12-17T02:42:44.905Z,101899.75
2022-12-17T02:45:34.621Z,101906.75
2022-12-17T02:48:22.746Z,101910.31
2022-12-17T02:51:09.388Z,101909.78
2022-12-17T02:54:01.324Z,101903.88
2022-12-17T02:56:48.327Z,101906.38
2022-12-17T02:59:35.625Z,101914.25
2022-12-17T03:02:31.254Z,101912.38
2022-12-17T03:05:43.345Z,101909.78
2022-12-17T03:08:25.669Z,101914.09
2022-12-17T03:11:12.666Z,101913.06
2022-12-17T03:13:59.867Z,101914.78
2022-12-17T03:16:47.396Z,101907.63
2022-12-17T03:19:35.576Z,101912.00
2022-12-17T03:22:22.566Z,101903.22
2022-12-17T03:25:09.716Z,101913.34
2022-12-17T03:28:02.365Z,101906.25
2022-12-17T03:30:49.489Z,101914.31
2022-12-17T03:33:36.927Z,101908.94
2022-12-17T03:36:26.426Z,101908.13
2022-12-17T03:39:13.939Z,101905.34
2022-12-17T03:42:00.749Z,101914.81
2022-12-17T03:44:47.730Z,101920.75
2022-12-17T03:47:34.719Z,101920.03
2022-12-17T03:50:22.028Z,101920.91
2022-12-17T03:53:10.170Z,101921.84
2022-12-17T03:55:57.160Z,101916.91
2022-12-17T03:58:44.079Z,101918.81
2022-12-17T04:01:31.459Z,101917.00
2022-12-17T04:04:18.218Z,101924.78
2022-12-17T04:07:05.390Z,101927.38
2022-12-17T04:09:53.571Z,101929.09
2022-12-17T04:12:40.638Z,101933.28
2022-12-17T04:15:28.132Z,101934.19
2022-12-17T04:18:17.750Z,101940.50
2022-12-17T04:21:04.590Z,101948.38
2022-12-17T04:23:51.640Z,101946.66
2022-12-17T04:26:40.131Z,101945.84
2022-12-17T04:29:27.258Z,101954.38
2022-12-17T04:32:13.998Z,101951.84
2022-12-17T04:35:00.989Z,101947.56
2022-12-17T04:37:48.030Z,101955.44
2022-12-17T04:40:35.549Z,101955.25
2022-12-17T04:43:27.209Z,101953.69
2022-12-17T04:46:14.365Z,101954.91
2022-12-17T04:49:01.680Z,101958.75
2022-12-17T04:51:48.751Z,101953.34
2022-12-17T04:54:35.500Z,101960.22
2022-12-17T04:57:22.729Z,101966.16
2022-12-17T05:00:11.170Z,101972.22
2022-12-17T05:02:58.359Z,101972.78
2022-12-17T05:05:45.039Z,101971.09
2022-12-17T05:08:35.617Z,101973.69
2022-12-17T05:11:25.959Z,101979.69
2022-12-17T05:14:13.175Z,101977.59
2022-12-17T05:17:01.549Z,101979.00
2022-12-17T05:19:48.561Z,101983.50
2022-12-17T05:22:36.009Z,101983.28
2022-12-17T05:25:23.539Z,101987.59
2022-12-17T05:28:10.530Z,101986.59
2022-12-17T05:30:57.882Z,101989.19
2022-12-17T05:33:46.495Z,101986.69
2022-12-17T05:36:33.670Z,101995.19
2022-12-17T05:39:20.868Z,101997.72
2022-12-17T05:42:07.940Z,102001.78
2022-12-17T05:44:55.000Z,102000.97
2022-12-17T05:47:42.059Z,102014.59
2022-12-17T05:50:30.487Z,102018.66
2022-12-17T05:53:20.345Z,102017.47
2022-12-17T05:56:07.899Z,102030.81
2022-12-17T05:58:55.349Z,102043.63
2022-12-17T06:01:42.367Z,102033.03
2022-12-17T06:04:41.580Z,102047.69
2022-12-17T06:07:29.629Z,102055.38
2022-12-17T06:10:16.859Z,102064.88
2022-12-17T06:13:18.568Z,102061.78
2022-12-17T06:16:07.690Z,102054.41
2022-12-17T06:18:54.980Z,102061.47
2022-12-17T06:21:42.108Z,102062.06
2022-12-17T06:24:30.630Z,102061.16
2022-12-17T06:27:17.765Z,102065.78
2022-12-17T06:30:04.637Z,102070.88
2022-12-17T06:32:51.800Z,102060.75
2022-12-17T06:35:38.740Z,102063.56
2022-12-17T06:38:25.972Z,102073.25
2022-12-17T06:41:14.088Z,102075.25
2022-12-17T06:44:01.140Z,102081.53
2022-12-17T06:46:48.191Z,102092.31
2022-12-17T06:49:35.498Z,102081.34
2022-12-17T06:52:22.479Z,102083.84
2022-12-17T06:55:09.590Z,102086.53
2022-12-17T06:57:57.929Z,102090.03
2022-12-17T07:00:45.254Z,102091.00
2022-12-17T07:03:32.200Z,102091.31
2022-12-17T07:06:19.860Z,102090.50
2022-12-17T07:09:07.120Z,102095.03
2022-12-17T07:11:54.768Z,102093.31
2022-12-17T07:14:43.409Z,102090.09
2022-12-17T07:17:30.940Z,102104.09
2022-12-17T07:20:17.719Z,102110.28
2022-12-17T07:23:05.267Z,102116.59
2022-12-17T07:25:52.090Z,102115.97
2022-12-17T07:28:39.509Z,102125.84
2022-12-17T07:31:28.290Z,102126.75
2022-12-17T07:34:16.493Z,102126.97
2022-12-17T07:37:03.488Z,102137.53
2022-12-17T07:39:52.177Z,102143.72
2022-12-17T07:42:39.260Z,102137.75
2022-12-17T07:45:27.495Z,102144.09
2022-12-17T07:48:15.928Z,102149.44
2022-12-17T07:51:06.981Z,102148.81
2022-12-17T07:53:53.800Z,102156.00
2022-12-17T07:56:41.418Z,102157.88
2022-12-17T07:59:28.289Z,102156.31
2022-12-17T08:02:15.903Z,102160.19
2022-12-17T08:05:04.419Z,102163.84
2022-12-17T08:07:52.913Z,102164.97
2022-12-17T08:10:40.449Z,102157.63
2022-12-17T08:13:30.359Z,102150.00
2022-12-17T08:16:17.283Z,102149.25
2022-12-17T08:19:04.543Z,102148.69
2022-12-17T08:21:52.838Z,102149.41
2022-12-17T08:24:40.017Z,102158.91
2022-12-17T08:27:27.358Z,102154.69
2022-12-17T08:30:14.721Z,102157.22
2022-12-17T08:33:01.738Z,102157.03
2022-12-17T08:35:49.426Z,102159.53
2022-12-17T08:38:37.858Z,102159.91
2022-12-17T08:41:24.927Z,102167.91
2022-12-17T08:44:12.019Z,102170.91
2022-12-17T08:46:55.818Z,102153.75
2022-12-17T08:49:42.921Z,102155.47
2022-12-17T08:52:30.118Z,102158.97
2022-12-17T08:55:18.299Z,102164.16
2022-12-17T08:58:11.559Z,102168.94
2022-12-17T09:00:59.078Z,102168.28
2022-12-17T09:03:46.111Z,102160.25
2022-12-17T09:06:38.937Z,102168.13
2022-12-17T09:09:25.690Z,102164.56
2022-12-17T09:12:14.218Z,102155.44
2022-12-17T09:15:01.879Z,102153.66
2022-12-17T09:17:57.047Z,102156.78
2022-12-17T09:20:44.163Z,102156.84
2022-12-17T09:23:35.153Z,102156.41
2022-12-17T09:26:24.108Z,102152.78
2022-12-17T09:29:13.790Z,102155.56
2022-12-17T09:32:01.118Z,102157.38
2022-12-17T09:34:48.158Z,102166.59
2022-12-17T09:37:35.469Z,102168.94
2022-12-17T09:40:23.080Z,102156.00
2022-12-17T09:43:14.240Z,102159.59
2022-12-17T09:46:06.417Z,102172.34
2022-12-17T09:48:58.178Z,102182.06
2022-12-17T09:51:46.508Z,102169.97
2022-12-17T09:54:38.774Z,102172.44
2022-12-17T09:57:29.769Z,102176.47
2022-12-17T10:00:17.238Z,102183.81
2022-12-17T10:03:05.916Z,102175.50
2022-12-17T10:05:53.629Z,102181.03
2022-12-17T10:08:40.966Z,102182.38
2022-12-17T10:11:37.698Z,102181.41
2022-12-17T10:14:31.430Z,102173.84
2022-12-17T10:17:18.681Z,102178.00
2022-12-17T10:20:11.099Z,102174.25
2022-12-17T10:23:02.408Z,102178.47
2022-12-17T10:25:49.757Z,102176.13
2022-12-17T10:28:37.894Z,102183.31
2022-12-17T10:31:27.320Z,102189.16
2022-12-17T10:34:16.551Z,102188.59
2022-12-17T10:37:06.486Z,102182.66
2022-12-17T10:39:53.937Z,102190.13
2022-12-17T10:42:41.060Z,102181.16
2022-12-17T10:45:43.107Z,102183.59
2022-12-17T10:48:36.812Z,102176.59
2022-12-17T10:51:24.588Z,102179.47
2022-12-17T10:54:12.501Z,102176.19
2022-12-17T10:56:59.910Z,102178.47
2022-12-17T10:59:50.477Z,102180.38
2022-12-17T11:02:39.975Z,102178.72
2022-12-17T11:05:32.216Z,102182.38
2022-12-17T11:08:20.358Z,102178.72
2022-12-17T11:11:08.679Z,102184.84
2022-12-17T11:14:07.218Z,102180.53
2022-12-17T11:16:57.788Z,102180.72
2022-12-17T11:19:49.999Z,102185.00
2022-12-17T11:22:41.673Z,102179.91
2022-12-17T11:25:40.840Z,102174.75
2022-12-17T11:28:34.528Z,102182.66
2022-12-17T11:31:30.314Z,102183.00
2022-12-17T11:34:24.048Z,102182.84
2022-12-17T11:37:16.277Z,102177.50
2022-12-17T11:40:07.827Z,102180.22
2022-12-17T11:42:58.660Z,102182.66
2022-12-17T11:45:50.896Z,102193.75
2022-12-17T11:48:39.777Z,102197.13
2022-12-17T11:51:31.860Z,102194.88
2022-12-17T11:54:23.287Z,102194.50
2022-12-17T11:57:19.367Z,102197.34
2022-12-17T12:00:18.370Z,102201.13
2022-12-17T12:03:12.657Z,102202.00
2022-12-17T12:06:04.312Z,102201.13
2022-12-17T12:08:54.347Z,102204.94
2022-12-17T12:11:46.558Z,102207.56
2022-12-17T12:14:40.888Z,102201.44
2022-12-17T12:17:35.048Z,102206.84
2022-12-17T12:20:29.359Z,102199.09
2022-12-17T12:23:22.219Z,102197.38
2022-12-17T12:26:16.569Z,102193.13
2022-12-17T12:29:07.410Z,102198.28
2022-12-17T12:31:56.709Z,102196.50
2022-12-17T12:34:48.998Z,102197.38
2022-12-17T12:37:39.468Z,102196.41
2022-12-17T12:40:41.984Z,102201.53
2022-12-17T12:43:33.648Z,102198.75
2022-12-17T12:46:23.731Z,102207.41
2022-12-17T12:49:16.609Z,102202.09
2022-12-17T12:52:05.199Z,102203.00
2022-12-17T12:55:18.028Z,102196.22
2022-12-17T12:58:22.258Z,102208.03
2022-12-17T13:01:13.109Z,102206.00
2022-12-17T13:04:09.039Z,102205.28
2022-12-17T13:06:41.150Z,102208.94
2022-12-17T13:09:22.235Z,102220.81
2022-12-17T13:11:57.249Z,102220.94
2022-12-17T13:14:31.934Z,102226.03
2022-12-17T13:17:04.437Z,102227.75
2022-12-17T13:19:36.610Z,102225.88
2022-12-17T13:22:18.821Z,102222.31
2022-12-17T13:24:55.512Z,102226.50
2022-12-17T13:27:32.947Z,102224.66
2022-12-17T13:30:21.953Z,102225.19
2022-12-17T13:32:58.008Z,102226.16
2022-12-17T13:35:33.648Z,102232.28
2022-12-17T13:38:09.229Z,102240.09
2022-12-17T13:40:43.238Z,102244.28
2022-12-17T13:43:20.190Z,102246.88
2022-12-17T13:45:52.221Z,102243.38
2022-12-17T13:48:23.320Z,102251.19
2022-12-17T13:50:56.820Z,102251.81
2022-12-17T13:53:26.471Z,102254.34
2022-12-17T13:55:57.376Z,102255.16
2022-12-17T13:58:28.345Z,102265.59
2022-12-17T14:01:16.207Z,102267.38
2022-12-17T14:04:06.281Z,102263.69
2022-12-17T14:06:39.329Z,102276.03
2022-12-17T14:09:09.182Z,102268.00
2022-12-17T14:11:56.911Z,102274.78
2022-12-17T14:14:29.255Z,102272.19
2022-12-17T14:16:59.568Z,102271.00
2022-12-17T14:19:32.218Z,102280.53
2022-12-17T14:22:02.678Z,102276.84
2022-12-17T14:24:32.386Z,102277.94
2022-12-17T14:27:02.871Z,102287.38
2022-12-17T14:29:33.508Z,102300.13
2022-12-17T14:32:05.366Z,102299.31
2022-12-17T14:34:44.068Z,102295.75
2022-12-17T14:37:18.057Z,102303.44
2022-12-17T14:39:48.658Z,102302.47
2022-12-17T14:42:29.823Z,102303.19
2022-12-17T14:45:00.703Z,102313.63
2022-12-17T14:47:31.598Z,102313.63
2022-12-17T14:50:04.892Z,102312.53
2022-12-17T14:52:36.767Z,102315.88
2022-12-17T14:55:26.079Z,102315.06
2022-12-17T14:58:07.998Z,102321.91
2022-12-17T15:00:39.358Z,102320.88
2022-12-17T15:03:11.917Z,102329.88
2022-12-17T15:05:43.669Z,102336.63
2022-12-17T15:08:13.700Z,102334.09
2022-12-17T15:10:43.299Z,102335.81
2022-12-17T15:13:13.658Z,102340.13
2022-12-17T15:15:43.553Z,102340.31
2022-12-17T15:18:13.752Z,102347.06
2022-12-17T15:20:45.259Z,102348.84
2022-12-17T15:23:17.269Z,102344.44
2022-12-17T15:25:47.491Z,102360.09
2022-12-17T15:28:17.969Z,102355.78
2022-12-17T15:30:47.990Z,102363.31
2022-12-17T15:33:18.886Z,102361.50
2022-12-17T15:35:49.929Z,102356.09
2022-12-17T15:38:19.918Z,102353.50
2022-12-17T15:40:49.458Z,102354.13
2022-12-17T15:43:21.069Z,102353.25
2022-12-17T15:45:51.450Z,102360.94
2022-12-17T15:48:22.311Z,102354.75
2022-12-17T15:50:53.379Z,102367.22
2022-12-17T15:53:23.308Z,102369.63
2022-12-17T15:56:00.458Z,102379.06
2022-12-17T15:58:30.470Z,102367.63
2022-12-17T16:01:00.139Z,102369.25
2022-12-17T16:03:30.153Z,102370.78
2022-12-17T16:06:03.800Z,102376.88
2022-12-17T16:08:33.796Z,102382.69
2022-12-17T16:11:07.439Z,102379.81
2022-12-17T16:13:37.385Z,102382.31
2022-12-17T16:16:08.172Z,102385.53
2022-12-17T16:18:39.541Z,102384.47
2022-12-17T16:21:11.102Z,102390.56
2022-12-17T16:23:41.359Z,102394.78
2022-12-17T16:26:13.099Z,102404.00
2022-12-17T16:28:43.179Z,102407.41
2022-12-17T16:31:14.388Z,102402.09
2022-12-17T16:33:45.699Z,102407.13
2022-12-17T16:36:17.370Z,102406.94
2022-12-17T16:38:48.122Z,102408.13
2022-12-17T16:41:18.239Z,102413.44
2022-12-17T16:43:51.729Z,102420.25
2022-12-17T16:46:31.034Z,102419.34
2022-12-17T16:49:02.619Z,102421.84
2022-12-17T16:51:33.999Z,102424.25
2022-12-17T16:54:06.350Z,102428.66
2022-12-17T16:56:40.543Z,102430.25
2022-12-17T16:59:11.398Z,102433.75
2022-12-17T17:01:42.251Z,102434.38
2022-12-17T17:04:13.421Z,102436.69
2022-12-17T17:06:46.855Z,102445.06
2022-12-17T17:09:17.442Z,102451.97
2022-12-17T17:11:51.412Z,102454.41
2022-12-17T17:14:22.152Z,102457.47
2022-12-17T17:16:51.754Z,102461.69
2022-12-17T17:19:21.605Z,102463.19
2022-12-17T17:21:54.421Z,102463.97
2022-12-17T17:24:26.168Z,102469.19
2022-12-17T17:26:56.594Z,102474.06
2022-12-17T17:29:26.503Z,102474.16
2022-12-17T17:32:13.176Z,102479.75
2022-12-17T17:34:43.813Z,102476.66
2022-12-17T17:37:14.984Z,102480.94
2022-12-17T17:39:45.113Z,102490.13
2022-12-17T17:42:14.712Z,102488.00
2022-12-17T17:44:44.673Z,102486.44
2022-12-17T17:47:14.254Z,102492.91
2022-12-17T17:49:44.224Z,102488.38
2022-12-17T17:52:17.331Z,102482.75
2022-12-17T17:54:48.901Z,102492.06
2022-12-17T17:57:18.623Z,102487.34
2022-12-17T17:59:48.613Z,102489.63
2022-12-17T18:02:18.290Z,102503.50
2022-12-17T18:04:48.782Z,102504.22
2022-12-17T18:07:28.134Z,102510.31
2022-12-17T18:10:00.732Z,102510.22
2022-12-17T18:12:49.953Z,102515.28
2022-12-17T18:15:21.355Z,102515.97
2022-12-17T18:17:53.333Z,102521.28
2022-12-17T18:20:23.359Z,102519.47
2022-12-17T18:22:55.212Z,102520.59
2022-12-17T18:25:25.544Z,102526.69
2022-12-17T18:27:56.695Z,102522.41
2022-12-17T18:30:27.024Z,102527.50
2022-12-17T18:32:56.636Z,102536.84
2022-12-17T18:35:27.866Z,102541.97
2022-12-17T18:37:58.905Z,102542.97
2022-12-17T18:40:33.318Z,102541.06
2022-12-17T18:43:23.075Z,102543.56
2022-12-17T18:45:53.755Z,102537.66
2022-12-17T18:48:24.935Z,102540.34
2022-12-17T18:50:58.605Z,102543.75
2022-12-17T18:53:32.173Z,102554.25
2022-12-17T18:56:08.475Z,102561.28
2022-12-17T18:58:38.364Z,102556.38
2022-12-17T19:01:08.902Z,102552.69
2022-12-17T19:03:38.894Z,102559.78
2022-12-17T19:06:09.855Z,102562.38
2022-12-17T19:08:41.064Z,102524.50
2022-12-17T19:11:18.875Z,102569.59
2022-12-17T19:13:49.325Z,102574.56
2022-12-17T19:16:20.478Z,102570.41
2022-12-17T19:18:53.057Z,102573.22
2022-12-17T19:21:23.764Z,102572.31
2022-12-17T19:23:57.004Z,102577.41
2022-12-17T19:26:27.952Z,102571.31
2022-12-17T19:28:59.974Z,102577.50
2022-12-17T19:31:30.946Z,102580.00
2022-12-17T19:34:02.057Z,102577.41
2022-12-17T19:36:33.474Z,102575.81
2022-12-17T19:39:05.915Z,102578.41
2022-12-17T19:41:36.234Z,102584.41
2022-12-17T19:44:07.324Z,102586.09
2022-12-17T19:46:38.066Z,102474.94
2022-12-17T19:49:07.944Z,102590.97
2022-12-17T19:51:39.077Z,102589.16
2022-12-17T19:54:11.506Z,102600.34
2022-12-17T19:56:41.573Z,102608.25
2022-12-17T19:59:12.286Z,102605.66
2022-12-17T20:01:43.405Z,102614.16
2022-12-17T20:04:14.523Z,102610.31
2022-12-17T20:06:47.784Z,102610.22
2022-12-17T20:09:18.978Z,102614.28
2022-12-17T20:11:48.977Z,102606.03
2022-12-17T20:14:21.103Z,102605.94
2022-12-17T20:16:51.962Z,102613.38
2022-12-17T20:19:22.795Z,102616.69
2022-12-17T20:21:53.143Z,102624.38
2022-12-17T20:24:30.682Z,102623.00
2022-12-17T20:27:01.902Z,102620.53
2022-12-17T20:29:31.546Z,102630.66
2022-12-17T20:32:04.601Z,102637.66
2022-12-17T20:34:34.815Z,102629.78
2022-12-17T20:37:04.996Z,102633.41
2022-12-17T20:39:36.175Z,102631.47
2022-12-17T20:42:06.213Z,102636.75
2022-12-17T20:44:35.814Z,102636.91
2022-12-17T20:47:05.928Z,102639.06
2022-12-17T20:49:43.683Z,102637.81
2022-12-17T20:52:19.698Z,102647.38
2022-12-17T20:54:54.512Z,102643.00
2022-12-17T20:57:26.154Z,102646.50
2022-12-17T20:59:55.793Z,102644.69
2022-12-17T21:02:26.135Z,102650.53
2022-12-17T21:04:55.935Z,102656.44
2022-12-17T21:07:26.290Z,102664.56
2022-12-17T21:09:57.537Z,102653.81
2022-12-17T21:12:48.723Z,102654.41
2022-12-17T21:15:19.015Z,102663.16
2022-12-17T21:17:49.205Z,102656.72
2022-12-17T21:20:19.184Z,102654.03
2022-12-17T21:22:49.524Z,102657.94
2022-12-17T21:25:22.186Z,102660.19
2022-12-17T21:27:52.284Z,102660.88
2022-12-17T21:30:21.927Z,102658.28
2022-12-17T21:32:52.051Z,102662.34
2022-12-17T21:35:22.313Z,102676.88
2022-12-17T21:37:52.875Z,102670.78
2022-12-17T21:40:24.334Z,102673.97
2022-12-17T21:43:04.995Z,102677.09
2022-12-17T21:45:38.567Z,102673.81
2022-12-17T21:48:11.876Z,102673.97
2022-12-17T21:50:46.407Z,102676.06
2022-12-17T21:53:17.705Z,102673.34
2022-12-17T21:55:50.275Z,102676.25
2022-12-17T21:58:23.895Z,102670.84
2022-12-17T22:00:55.274Z,102675.78
2022-12-17T22:03:26.037Z,102681.53
2022-12-17T22:05:55.764Z,102678.78
2022-12-17T22:08:26.273Z,102681.16
2022-12-17T22:10:57.852Z,102687.94
2022-12-17T22:14:06.502Z,102688.47
2022-12-17T22:16:40.530Z,102694.44
2022-12-17T22:19:11.354Z,102693.06
2022-12-17T22:21:42.363Z,102700.47
2022-12-17T22:24:14.236Z,102701.94
2022-12-17T22:26:47.094Z,102709.44
2022-12-17T22:29:37.653Z,102715.31
2022-12-17T22:32:28.385Z,102706.38
2022-12-17T22:35:56.582Z,102711.53
2022-12-17T22:41:53.933Z,102714.03
2022-12-17T22:44:31.720Z,102715.72
2022-12-17T22:44:46.464Z,102723.63
2022-12-17T22:46:20.687Z,102718.63
2022-12-17T22:48:50.405Z,102728.28
2022-12-17T22:51:30.131Z,102723.38
2022-12-17T22:54:05.206Z,102728.69
2022-12-17T22:56:46.288Z,102729.88
2022-12-17T22:59:30.294Z,102732.88
2022-12-17T23:02:00.401Z,102732.94
2022-12-17T23:04:30.306Z,102739.81
2022-12-17T23:07:00.467Z,102741.50
2022-12-17T23:09:30.205Z,102739.69
2022-12-17T23:12:21.481Z,102748.38
2022-12-17T23:14:52.884Z,102751.06
2022-12-17T23:17:22.873Z,102744.88
2022-12-17T23:19:52.424Z,102748.63
2022-12-17T23:22:22.601Z,102752.75
2022-12-17T23:24:52.233Z,102748.75
2022-12-17T23:27:22.255Z,102756.03
2022-12-17T23:29:53.393Z,102758.47
2022-12-17T23:32:23.394Z,102770.50
2022-12-17T23:34:52.963Z,102768.44
2022-12-17T23:37:23.005Z,102764.53
2022-12-17T23:39:52.664Z,102769.59
2022-12-17T23:42:22.575Z,102773.09
2022-12-17T23:44:53.807Z,102777.47
2022-12-17T23:47:23.797Z,102775.41
2022-12-17T23:49:53.465Z,102785.09
2022-12-17T23:52:23.323Z,102785.88
2022-12-17T23:54:52.944Z,102787.25
2022-12-17T23:57:22.983Z,102782.25
2022-12-17T23:59:54.193Z,102792.34
